Time;durP1;ratioP1;P1;durP2;ratioP2;P2;SDS_P1;SDS_P2;PMS_P1;PMS_P2;Temp;Humidity;BMP_temperature;BMP_pressure;BME280_temperature;BME280_humidity;BME280_pressure;Samples;Min_cycle;Max_cycle;Signal;HPM_P1;HPM_P2
2022/12/22 03:27:00;;;;;;;2.05;1.60;;;;;;;14.92;49.55;92947.97;5009955;28;20401;-83
2022/12/22 03:29:26;;;;;;;2.30;1.85;;;;;;;14.88;49.76;92950.94;5010471;28;20493;-85
2022/12/22 03:31:51;;;;;;;2.10;1.67;;;;;;;14.85;49.98;92946.50;4977356;28;20038;-89
2022/12/22 03:34:16;;;;;;;2.22;1.63;;;;;;;14.89;50.05;92952.44;5026692;28;20093;-91
2022/12/22 03:36:42;;;;;;;1.77;1.50;;;;;;;14.87;49.96;92954.16;4994020;28;20532;-89
2022/12/22 03:39:08;;;;;;;1.52;1.40;;;;;;;14.92;49.96;92937.09;5026260;28;20034;-89
2022/12/22 03:47:02;;;;;;;2.47;1.90;;;;;;;14.91;49.74;92927.44;5009726;28;20049;-89
2022/12/22 03:49:28;;;;;;;3.92;1.73;;;;;;;14.87;50.18;92916.81;4993641;28;20452;-84
2022/12/22 03:51:53;;;;;;;2.08;1.70;;;;;;;14.84;50.06;92925.97;4993505;28;20042;-84
2022/12/22 03:54:22;;;;;;;1.95;1.48;;;;;;;14.86;50.05;92922.75;5008990;28;20030;-84
2022/12/22 03:56:47;;;;;;;1.75;1.42;;;;;;;14.88;50.30;92921.00;4993111;28;20122;-94
2022/12/22 03:59:13;;;;;;;2.30;1.48;;;;;;;14.88;50.31;92920.28;5010019;28;20868;-85
2022/12/22 04:01:40;;;;;;;2.67;1.67;;;;;;;14.86;49.91;92920.78;5026133;28;20038;-84
2022/12/22 04:04:06;;;;;;;2.53;1.80;;;;;;;14.85;49.98;92926.72;5008895;28;20053;-87
2022/12/22 04:06:31;;;;;;;1.90;1.70;;;;;;;14.89;50.43;92925.22;5010221;28;20042;-90
2022/12/22 04:08:56;;;;;;;2.50;1.65;;;;;;;14.87;50.12;92922.25;5010476;28;20052;-89
2022/12/22 04:14:05;;;;;;;2.00;1.52;;;;;;;14.86;50.04;92920.03;5009390;28;20049;-87
2022/12/22 04:16:31;;;;;;;3.42;1.80;;;;;;;14.88;50.17;92914.81;5008781;28;20046;-87
2022/12/22 04:18:56;;;;;;;2.22;1.50;;;;;;;14.86;50.00;92923.50;5009784;28;20034;-89
2022/12/22 04:21:22;;;;;;;2.05;1.50;;;;;;;14.92;49.61;92918.78;5008997;28;20519;-84
2022/12/22 04:23:51;;;;;;;2.38;1.83;;;;;;;14.88;50.34;92920.28;5009111;28;20092;-85
2022/12/22 04:26:19;;;;;;;2.78;1.58;;;;;;;14.87;49.89;92911.38;5007700;28;20041;-90
2022/12/22 04:28:44;;;;;;;2.13;1.50;;;;;;;14.89;50.17;92908.88;4992290;28;20041;-83
2022/12/22 04:31:10;;;;;;;2.30;1.60;;;;;;;14.90;50.13;92909.63;4992231;28;20772;-84
2022/12/22 04:33:38;;;;;;;2.65;1.92;;;;;;;14.89;50.22;92897.25;4977217;28;20042;-88
2022/12/22 04:36:04;;;;;;;2.40;1.70;;;;;;;14.88;50.23;92899.25;4977121;28;20053;-84
2022/12/22 04:38:29;;;;;;;2.05;1.63;;;;;;;14.94;50.06;92891.78;5008678;28;20058;-93
2022/12/22 04:40:55;;;;;;;3.08;1.63;;;;;;;14.88;49.92;92895.78;5026075;28;20069;-86
2022/12/22 04:43:20;;;;;;;1.67;1.30;;;;;;;14.88;49.97;92899.25;5008718;28;20046;-85
2022/12/22 04:45:46;;;;;;;2.33;1.58;;;;;;;14.92;50.14;92909.88;4992666;28;20135;-84
2022/12/22 04:48:11;;;;;;;3.67;1.75;;;;;;;14.92;49.90;92904.44;4992406;28;20500;-84
2022/12/22 04:50:36;;;;;;;2.58;1.65;;;;;;;14.94;49.89;92915.56;5009163;28;20057;-94
2022/12/22 04:53:02;;;;;;;2.05;1.48;;;;;;;14.92;49.89;92907.91;5008034;28;20034;-84
2022/12/22 04:55:27;;;;;;;2.15;1.50;;;;;;;14.91;50.12;92911.13;5025238;28;20038;-86
2022/12/22 04:57:52;;;;;;;1.63;1.50;;;;;;;14.93;50.21;92919.53;5008931;28;20392;-87
2022/12/22 05:00:18;;;;;;;1.98;1.20;;;;;;;14.88;50.40;92912.84;5008911;28;20034;-84
2022/12/22 05:02:44;;;;;;;2.05;1.25;;;;;;;14.90;50.30;92904.19;4992648;28;20042;-87
2022/12/22 05:05:09;;;;;;;2.40;1.45;;;;;;;14.92;49.97;92902.44;4991470;28;20038;-85
2022/12/22 05:07:34;;;;;;;2.30;1.35;;;;;;;14.90;49.98;92904.94;5025274;28;20505;-87
2022/12/22 05:10:00;;;;;;;2.03;1.60;;;;;;;14.97;50.00;92904.38;4976005;28;20044;-84
2022/12/22 05:15:09;;;;;;;1.73;1.40;;;;;;;14.88;50.40;92893.81;4980729;28;20435;-84
2022/12/22 05:17:35;;;;;;;2.10;1.30;;;;;;;14.89;50.34;92889.84;4991489;28;20033;-91
2022/12/22 05:20:00;;;;;;;1.92;1.48;;;;;;;14.87;50.27;92900.47;5025101;28;20049;-87
2022/12/22 05:22:26;;;;;;;1.90;1.33;;;;;;;14.87;50.25;92900.47;5007878;28;20068;-84
2022/12/22 05:24:51;;;;;;;2.55;1.60;;;;;;;14.94;50.25;92908.09;5009043;28;20791;-87
2022/12/22 05:27:16;;;;;;;18.77;2.20;;;;;;;14.96;50.91;92894.00;4987111;28;20042;-87
2022/12/22 05:29:42;;;;;;;5.25;1.90;;;;;;;14.93;50.88;92879.44;5040272;28;20037;-85
2022/12/22 05:32:08;;;;;;;4.40;1.50;;;;;;;14.92;50.44;92877.97;4989531;28;20038;-87
2022/12/22 05:34:35;;;;;;;17.95;16.02;;;;;;;14.97;50.17;92887.31;4977235;28;20033;-87
2022/12/22 05:37:00;;;;;;;8.70;3.38;;;;;;;15.04;50.76;92894.97;5009345;28;20535;-90
2022/12/22 05:39:26;;;;;;;210.50;95.85;;;;;;;15.09;50.25;92897.69;4990735;28;20042;-84
2022/12/22 05:41:51;;;;;;;62.80;45.75;;;;;;;15.19;49.89;92895.41;4992046;28;20034;-85
2022/12/22 05:44:17;;;;;;;75.28;31.55;;;;;;;15.16;50.75;92903.81;5013769;28;20030;-86
2022/12/22 05:46:43;;;;;;;26.10;8.55;;;;;;;15.22;50.19;92904.53;4977063;28;20053;-89
2022/12/22 05:49:08;;;;;;;19.55;8.48;;;;;;;15.13;50.27;92908.31;5000035;28;20410;-87
2022/12/22 05:51:34;;;;;;;5.15;3.88;;;;;;;15.10;50.17;92909.31;4972446;28;20038;-90
2022/12/22 05:53:59;;;;;;;6.28;3.55;;;;;;;15.11;49.94;92910.06;4987549;28;20045;-90
2022/12/22 05:56:25;;;;;;;6.03;2.72;;;;;;;14.99;50.08;92899.19;4971175;28;20070;-91
2022/12/22 05:58:50;;;;;;;9.10;3.20;;;;;;;14.95;50.04;92901.44;4986955;28;20038;-93
2022/12/22 06:01:16;;;;;;;18.92;5.90;;;;;;;14.95;49.72;92903.41;4972540;28;20137;-90
2022/12/22 06:03:41;;;;;;;7.55;4.18;;;;;;;14.94;50.00;92897.22;5006563;28;20046;-90
2022/12/22 06:06:07;;;;;;;20.10;5.28;;;;;;;14.98;50.37;92903.16;4987497;28;20038;-87
2022/12/22 06:08:32;;;;;;;29.30;7.13;;;;;;;14.98;50.34;92894.25;4971752;28;20046;-91
2022/12/22 06:10:58;;;;;;;20.90;6.18;;;;;;;15.02;50.22;92894.72;4978097;28;20043;-91
2022/12/22 06:13:23;;;;;;;31.80;8.32;;;;;;;14.99;50.16;92896.47;4988569;28;20123;-88
2022/12/22 06:15:49;;;;;;;27.05;8.48;;;;;;;14.92;49.99;92899.00;4987292;28;20045;-89
2022/12/22 06:18:14;;;;;;;31.77;10.43;;;;;;;14.96;50.19;92896.72;4974980;28;20050;-89
2022/12/22 06:20:40;;;;;;;27.75;10.98;;;;;;;14.96;50.33;92892.03;5024318;28;20045;-84
2022/12/22 06:23:05;;;;;;;36.88;14.55;;;;;;;14.96;50.11;92894.75;4983002;28;20042;-87
2022/12/22 06:25:31;;;;;;;44.70;12.48;;;;;;;14.93;50.27;92897.75;4992268;28;20654;-87
2022/12/22 06:27:56;;;;;;;38.70;15.15;;;;;;;14.93;50.22;92908.63;4974973;28;20034;-92
2022/12/22 06:30:22;;;;;;;46.22;15.25;;;;;;;14.95;49.86;92904.16;5002200;28;20045;-89
2022/12/22 06:32:47;;;;;;;48.05;13.98;;;;;;;14.90;49.60;92906.91;4979949;28;20034;-90
2022/12/22 06:35:13;;;;;;;35.10;13.93;;;;;;;14.83;50.03;92913.59;4988052;28;20034;-91
2022/12/22 06:37:38;;;;;;;44.58;14.90;;;;;;;14.88;49.93;92910.13;5006851;28;20041;-91
2022/12/22 06:40:04;;;;;;;43.95;14.95;;;;;;;14.93;50.51;92908.63;4988756;28;20068;-89
2022/12/22 06:45:14;;;;;;;41.22;15.23;;;;;;;14.99;50.00;92906.63;4997165;28;20065;-85
2022/12/22 06:47:40;;;;;;;42.50;13.98;;;;;;;15.03;49.96;92899.69;5021368;28;20050;-87
2022/12/22 06:50:06;;;;;;;39.22;14.65;;;;;;;15.07;49.71;92897.44;5008718;28;20038;-90
2022/12/22 06:52:32;;;;;;;51.13;17.85;;;;;;;15.01;49.99;92896.72;4990507;28;20088;-87
2022/12/22 06:54:57;;;;;;;49.20;21.83;;;;;;;15.10;49.97;92906.59;5010764;28;20038;-89
2022/12/22 06:57:23;;;;;;;64.20;28.73;;;;;;;15.13;49.49;92902.13;5020815;28;20096;-89
2022/12/22 06:59:48;;;;;;;89.50;36.08;;;;;;;15.09;49.60;92905.09;4986898;28;20070;-89
2022/12/22 07:02:13;;;;;;;74.95;40.85;;;;;;;15.13;49.39;92910.28;5018476;28;20523;-89
2022/12/22 07:04:39;;;;;;;108.93;50.53;;;;;;;15.16;49.44;92910.00;4973179;28;20051;-88
2022/12/22 07:07:04;;;;;;;120.00;53.92;;;;;;;15.25;49.66;92909.00;4968466;28;20093;-87
2022/12/22 07:09:32;;;;;;;164.60;84.75;;;;;;;15.24;49.67;92916.41;4974163;28;20038;-88
2022/12/22 07:12:02;;;;;;;175.15;85.78;;;;;;;15.23;49.81;92912.22;4978855;28;20056;-89
2022/12/22 07:14:27;;;;;;;295.50;143.52;;;;;;;15.19;50.02;92909.00;4983659;28;20051;-90
2022/12/22 07:16:53;;;;;;;147.70;74.90;;;;;;;15.23;50.48;92911.47;4990097;28;20452;-90
2022/12/22 07:19:18;;;;;;;142.98;77.78;;;;;;;15.25;50.25;92909.72;5005753;28;20056;-90
2022/12/22 07:21:46;;;;;;;507.13;323.80;;;;;;;15.33;49.93;92904.50;5003921;28;20463;-88
2022/12/22 07:24:12;;;;;;;362.10;192.57;;;;;;;15.32;49.91;92911.94;5000144;28;20072;-91
2022/12/22 07:26:37;;;;;;;263.15;131.90;;;;;;;15.37;49.86;92902.97;4985581;28;20436;-85
2022/12/22 07:29:03;;;;;;;111.50;61.40;;;;;;;15.29;49.63;92904.75;4988750;28;20141;-85
2022/12/22 07:31:28;;;;;;;126.35;65.57;;;;;;;15.27;49.72;92901.06;4987659;28;20034;-90
2022/12/22 07:33:54;;;;;;;104.97;56.40;;;;;;;15.29;49.78;92907.50;5003772;28;20475;-92
2022/12/22 07:36:19;;;;;;;106.07;54.95;;;;;;;15.28;49.77;92905.25;4988968;28;20045;-89
2022/12/22 07:38:46;;;;;;;123.18;62.13;;;;;;;15.24;49.93;92910.22;4972492;28;20046;-93
2022/12/22 07:43:57;;;;;;;100.93;53.97;;;;;;;15.21;49.39;92909.25;5006843;28;20518;-90
2022/12/22 07:46:23;;;;;;;136.80;70.75;;;;;;;15.16;49.58;92892.94;4990021;28;20061;-88
2022/12/22 07:51:38;;;;;;;118.88;62.38;;;;;;;15.19;50.05;92881.03;5002828;28;20053;-89
2022/12/22 07:54:04;;;;;;;119.07;60.47;;;;;;;15.17;50.25;92876.09;5003219;28;20042;-89
2022/12/22 07:56:29;;;;;;;115.15;59.75;;;;;;;15.16;50.39;92887.47;5005987;28;20567;-90
2022/12/22 07:58:55;;;;;;;121.38;56.35;;;;;;;15.13;50.40;92883.81;4973422;28;20065;-88
2022/12/22 08:01:20;;;;;;;96.13;52.15;;;;;;;15.17;49.99;92875.34;4990271;28;20056;-91
2022/12/22 08:03:46;;;;;;;108.38;54.47;;;;;;;15.16;50.19;92871.88;4990864;28;20046;-90
2022/12/22 08:06:11;;;;;;;106.68;45.22;;;;;;;15.11;50.10;92880.84;4995067;28;20038;-87
2022/12/22 08:08:36;;;;;;;71.03;38.67;;;;;;;15.11;49.62;92883.56;5011702;28;20072;-90
2022/12/22 08:11:02;;;;;;;81.05;41.92;;;;;;;15.08;49.97;92871.69;4979976;28;20049;-86
2022/12/22 08:13:28;;;;;;;89.88;41.38;;;;;;;15.14;50.08;92868.97;4977323;28;20095;-88
2022/12/22 08:15:53;;;;;;;99.80;45.30;;;;;;;15.10;50.40;92873.91;4995004;28;20038;-90
2022/12/22 08:18:19;;;;;;;90.80;42.78;;;;;;;15.12;50.03;92871.44;5010687;28;20042;-94
2022/12/22 08:20:50;;;;;;;84.53;41.83;;;;;;;15.17;49.71;92875.34;4979101;28;20045;-91
2022/12/22 08:23:15;;;;;;;71.30;41.53;;;;;;;15.14;50.00;92868.22;4990008;28;20041;-92
2022/12/22 08:25:41;;;;;;;79.15;43.15;;;;;;;15.18;50.42;92863.22;4985747;28;20520;-91
2022/12/22 08:28:06;;;;;;;71.10;40.95;;;;;;;15.13;50.43;92869.47;4998338;28;20065;-89
2022/12/22 08:30:32;;;;;;;77.13;41.47;;;;;;;15.08;50.46;92871.69;5010132;28;20037;-88
2022/12/22 08:32:58;;;;;;;71.53;37.05;;;;;;;15.12;50.31;92868.72;4997417;28;20080;-91
2022/12/22 08:35:23;;;;;;;59.55;34.35;;;;;;;15.16;50.05;92879.31;4993245;28;20042;-89
2022/12/22 08:37:49;;;;;;;78.70;39.92;;;;;;;15.13;50.00;92872.91;5009158;28;20062;-89
2022/12/22 08:40:20;;;;;;;80.03;39.80;;;;;;;15.23;49.73;92876.06;4997959;28;20053;-92
2022/12/22 08:42:46;;;;;;;111.25;45.30;;;;;;;15.13;49.21;92864.75;4996561;28;20105;-92
2022/12/22 08:45:11;;;;;;;87.75;39.97;;;;;;;15.00;49.19;92867.28;4990866;28;20440;-91
2022/12/22 08:47:37;;;;;;;59.20;30.10;;;;;;;14.90;49.13;92868.81;5013122;28;20042;-88
2022/12/22 08:50:03;;;;;;;42.53;22.95;;;;;;;14.90;48.63;92863.38;4993611;28;20067;-92
2022/12/22 08:52:29;;;;;;;45.60;21.67;;;;;;;14.86;48.56;92868.31;4994847;28;20033;-91
2022/12/22 08:54:54;;;;;;;37.17;21.08;;;;;;;14.83;49.03;92863.88;4991130;28;20152;-89
2022/12/22 08:57:25;;;;;;;47.72;19.70;;;;;;;14.81;49.17;92864.38;4980763;28;20033;-91
2022/12/22 08:59:51;;;;;;;37.70;18.30;;;;;;;14.71;49.16;92874.06;4980467;28;20072;-87
2022/12/22 09:02:16;;;;;;;31.90;16.13;;;;;;;14.69;49.12;92874.56;4983990;28;20137;-91
2022/12/22 09:04:42;;;;;;;31.55;16.02;;;;;;;14.67;49.55;92868.16;4992680;28;20038;-92
2022/12/22 09:07:07;;;;;;;45.70;23.60;;;;;;;14.76;49.35;92862.41;5011457;28;20117;-91
2022/12/22 09:09:33;;;;;;;49.63;30.73;;;;;;;14.79;49.10;92863.41;4969006;28;20037;-89
2022/12/22 09:11:59;;;;;;;55.70;28.20;;;;;;;14.88;49.62;92868.56;4976405;28;20030;-92
2022/12/22 09:14:24;;;;;;;48.33;23.90;;;;;;;14.93;49.41;92868.56;4998424;28;20037;-90
2022/12/22 09:16:54;;;;;;;37.20;20.90;;;;;;;14.96;49.53;92859.38;5004596;28;20075;-94
2022/12/22 09:19:22;;;;;;;43.33;21.23;;;;;;;15.05;49.30;92856.38;4980438;28;20034;-92
2022/12/22 09:21:48;;;;;;;32.55;20.15;;;;;;;15.00;49.67;92838.06;4975786;28;20047;-91
2022/12/22 09:24:13;;;;;;;40.72;19.90;;;;;;;14.95;49.42;92830.66;4938000;28;20046;-93
2022/12/22 09:26:39;;;;;;;38.25;21.52;;;;;;;15.00;49.15;92846.25;4956633;28;20047;-92
2022/12/22 09:29:04;;;;;;;26.42;15.85;;;;;;;14.95;48.88;92841.56;4963196;28;20102;-91
2022/12/22 09:31:30;;;;;;;295.27;38.42;;;;;;;14.89;48.99;92834.69;4971164;28;20039;-91
2022/12/22 09:33:56;;;;;;;135.50;20.35;;;;;;;14.83;48.99;92836.66;4956795;28;20039;-90
2022/12/22 09:36:25;;;;;;;161.05;23.75;;;;;;;14.88;48.85;92827.75;4950821;28;20043;-93
2022/12/22 09:38:52;;;;;;;324.98;41.05;;;;;;;14.91;48.78;92832.19;4922931;28;20113;-94
2022/12/22 09:41:33;;;;;;;271.48;37.72;;;;;;;14.95;49.16;92840.81;4937846;28;20421;-93
2022/12/22 09:44:04;;;;;;;193.85;44.78;;;;;;;14.96;49.26;92842.28;4962494;28;20605;-92
2022/12/22 09:46:35;;;;;;;104.93;38.70;;;;;;;14.93;49.18;92837.88;4905971;29;20545;-94
2022/12/22 09:49:00;;;;;;;93.35;35.35;;;;;;;15.01;49.42;92833.38;4905709;29;20054;-93
2022/12/22 09:51:26;;;;;;;83.80;40.13;;;;;;;15.03;49.48;92828.91;4926220;28;20040;-94
2022/12/22 09:53:54;;;;;;;142.45;46.00;;;;;;;15.01;49.49;92833.38;4918356;29;20039;-93
2022/12/22 09:56:20;;;;;;;91.82;44.72;;;;;;;15.01;49.42;92820.50;4895037;28;20036;-90
2022/12/22 09:58:46;;;;;;;105.38;34.15;;;;;;;15.09;49.48;92820.72;4920706;29;20039;-94
2022/12/22 10:01:36;;;;;;;89.55;36.47;;;;;;;15.12;49.31;92814.28;4936472;28;20043;-92
2022/12/22 10:04:11;;;;;;;108.18;45.30;;;;;;;15.08;49.69;92819.97;4950041;29;20415;-92
2022/12/22 10:06:55;;;;;;;59.17;26.85;;;;;;;15.07;48.65;92815.03;4924403;29;20059;-91
2022/12/22 10:09:25;;;;;;;53.13;26.02;;;;;;;15.01;48.18;92817.78;4930794;29;20043;-90
2022/12/22 10:11:54;;;;;;;44.80;22.08;;;;;;;14.86;48.15;92822.06;4944638;28;20081;-93
2022/12/22 10:14:20;;;;;;;71.07;29.52;;;;;;;14.94;48.40;92814.88;4985805;28;20406;-87
2022/12/22 10:16:45;;;;;;;452.60;62.28;;;;;;;14.78;48.33;92812.94;4976544;28;20074;-90
2022/12/22 10:19:12;;;;;;;631.17;89.82;;;;;;;14.79;48.46;92822.59;4982048;28;20180;-94
2022/12/22 10:21:38;;;;;;;198.13;52.95;;;;;;;14.85;48.82;92810.44;4993305;28;20495;-88
2022/12/22 10:24:16;;;;;;;314.13;62.92;;;;;;;14.80;48.86;92818.63;4991028;28;20124;-94
2022/12/22 10:26:41;;;;;;;312.73;54.03;;;;;;;14.79;48.91;92819.88;4989690;28;20042;-90
2022/12/22 10:29:13;;;;;;;267.33;51.28;;;;;;;14.79;49.20;92807.00;4962419;28;20837;-91
2022/12/22 10:32:01;;;;;;;270.30;55.22;;;;;;;14.84;48.62;92811.69;5000016;28;20038;-91
2022/12/22 10:34:27;;;;;;;207.73;53.95;;;;;;;14.84;48.90;92811.69;4978534;28;20046;-90
2022/12/22 10:37:00;;;;;;;248.27;61.08;;;;;;;14.95;49.22;92806.16;4994179;28;20108;-86
2022/12/22 10:39:33;;;;;;;209.95;76.45;;;;;;;14.97;49.05;92814.56;4990988;28;20100;-87
2022/12/22 10:42:07;;;;;;;223.32;87.90;;;;;;;15.00;49.53;92807.38;4976673;28;20061;-90
2022/12/22 10:44:33;;;;;;;519.28;124.22;;;;;;;15.03;49.48;92807.13;4998303;28;20050;-89
2022/12/22 10:47:00;;;;;;;351.67;106.57;;;;;;;15.03;49.06;92795.50;4997954;28;20475;-91
2022/12/22 10:49:35;;;;;;;842.90;171.68;;;;;;;15.13;49.20;92798.69;4977655;28;20038;-88
2022/12/22 10:52:19;;;;;;;645.35;134.18;;;;;;;15.07;49.11;92787.81;4991941;28;20038;-95
2022/12/22 10:54:46;;;;;;;644.30;142.68;;;;;;;15.07;49.67;92785.09;4980004;28;20042;-94
2022/12/22 10:57:14;;;;;;;565.55;113.53;;;;;;;15.16;49.29;92790.22;4995550;28;20042;-91
2022/12/22 10:59:48;;;;;;;367.88;103.90;;;;;;;15.12;49.38;92784.31;5018333;28;20050;-93
2022/12/22 11:02:19;;;;;;;311.15;98.65;;;;;;;15.12;49.19;92778.16;4990807;28;20101;-93
2022/12/22 11:04:45;;;;;;;291.10;96.22;;;;;;;15.12;48.87;92776.16;5021429;28;20050;-93
2022/12/22 11:07:10;;;;;;;276.92;91.40;;;;;;;15.11;49.15;92780.13;4988239;28;20046;-93
2022/12/22 11:09:36;;;;;;;257.98;88.50;;;;;;;15.18;49.29;92765.94;5007311;28;20061;-93
2022/12/22 11:12:09;;;;;;;258.58;85.38;;;;;;;15.14;49.20;92760.06;4963633;28;20042;-91
2022/12/22 11:15:12;;;;;;;248.68;83.43;;;;;;;15.13;49.14;92758.59;4976955;28;20050;-93
2022/12/22 11:17:42;;;;;;;208.00;76.80;;;;;;;15.13;49.27;92766.00;5012903;28;20041;-93
2022/12/22 11:20:30;;;;;;;201.15;74.00;;;;;;;15.14;49.30;92770.22;4993731;28;20626;-93
2022/12/22 11:23:26;;;;;;;207.77;75.13;;;;;;;15.14;49.40;92772.94;4989689;28;20069;-92
2022/12/22 11:26:15;;;;;;;208.98;70.53;;;;;;;15.17;49.19;92761.00;5025566;28;20046;-91
2022/12/22 11:28:43;;;;;;;173.85;64.43;;;;;;;15.19;49.57;92766.69;4995093;28;20034;-96
2022/12/22 11:31:31;;;;;;;146.95;60.17;;;;;;;15.19;49.07;92770.16;5002830;28;20050;-94
2022/12/22 11:34:20;;;;;;;129.65;51.88;;;;;;;15.09;48.21;92753.41;5024372;28;20034;-93
2022/12/22 11:36:52;;;;;;;137.38;54.03;;;;;;;15.09;48.24;92767.00;5023481;28;20053;-91
2022/12/22 11:39:25;;;;;;;513.13;183.70;;;;;;;15.12;48.99;92757.09;5011973;28;20046;-92
2022/12/22 11:42:20;;;;;;;125.82;47.38;;;;;;;15.23;49.05;92761.72;4980318;28;20089;-91
2022/12/22 11:45:19;;;;;;;131.75;52.95;;;;;;;15.14;49.21;92753.88;5006741;28;20081;-93
2022/12/22 11:47:47;;;;;;;103.38;50.88;;;;;;;15.15;49.60;92760.81;4996744;28;20050;-93
2022/12/22 11:50:34;;;;;;;109.07;46.67;;;;;;;15.12;49.83;92743.50;5014049;28;20069;-91
2022/12/22 11:53:14;;;;;;;104.13;46.33;;;;;;;15.21;49.68;92726.84;4981484;28;20034;-91
2022/12/22 11:55:42;;;;;;;85.13;41.47;;;;;;;15.28;49.78;92714.66;4980373;28;20144;-91
2022/12/22 11:58:39;;;;;;;105.07;43.00;;;;;;;15.20;50.12;92719.91;4977742;28;20040;-91
2022/12/22 12:01:33;;;;;;;136.30;50.38;;;;;;;15.15;49.76;92719.97;4975718;28;20151;-90
2022/12/22 12:04:35;;;;;;;112.43;43.60;;;;;;;15.19;49.76;92731.31;5009875;28;20057;-88
2022/12/22 12:07:21;;;;;;;194.05;55.58;;;;;;;15.16;50.13;92732.31;5007608;28;20050;-93
2022/12/22 12:10:00;;;;;;;302.58;53.05;;;;;;;15.13;49.37;92725.91;4993885;28;20042;-91
2022/12/22 12:12:31;;;;;;;210.43;38.72;;;;;;;15.04;48.33;92723.50;4990149;28;20053;-91
2022/12/22 12:15:23;;;;;;;714.83;75.75;;;;;;;14.93;47.75;92716.16;4974929;28;20034;-91
2022/12/22 12:18:22;;;;;;;98.20;19.48;;;;;;;14.88;47.46;92722.38;4975094;28;20050;-88
2022/12/22 12:20:56;;;;;;;70.85;16.77;;;;;;;14.78;47.70;92713.00;4990129;28;20046;-89
2022/12/22 12:23:32;;;;;;;68.13;17.35;;;;;;;14.73;47.86;92727.38;4993292;28;20065;-93
2022/12/22 12:26:03;;;;;;;106.88;21.20;;;;;;;14.71;47.82;92719.75;4991320;28;20042;-91
2022/12/22 12:28:29;;;;;;;401.58;42.47;;;;;;;14.86;48.07;92711.25;4976712;28;20062;-90
2022/12/22 12:30:55;;;;;;;242.07;32.00;;;;;;;14.89;48.25;92712.97;5004953;28;20077;-92
2022/12/22 12:33:26;;;;;;;324.15;44.33;;;;;;;14.99;48.73;92716.84;4972369;28;20081;-88
2022/12/22 12:36:04;;;;;;;;;;;;;;;15.02;48.77;92717.81;5007414;28;20133;-89
2022/12/22 12:39:07;;;;;;;173.07;38.35;;;;;;;15.00;49.09;92714.84;4989385;28;19921;-88
2022/12/22 12:41:39;;;;;;;170.30;36.03;;;;;;;15.01;50.28;92722.53;5003716;28;20116;-87
2022/12/22 12:44:04;;;;;;;145.15;38.42;;;;;;;15.05;49.57;92727.69;4974531;28;20501;-91
2022/12/22 12:46:43;;;;;;;125.22;37.42;;;;;;;15.04;49.79;92721.50;4974322;28;20121;-91
2022/12/22 12:49:34;;;;;;;113.28;34.33;;;;;;;15.06;49.69;92729.91;4987708;28;20058;-88
2022/12/22 12:52:01;;;;;;;113.13;38.03;;;;;;;14.99;48.67;92727.72;5005215;28;20428;-89
2022/12/22 12:54:35;;;;;;;89.10;24.63;;;;;;;14.91;47.94;92726.81;4984167;28;20046;-90
2022/12/22 12:57:29;;;;;;;99.13;29.20;;;;;;;14.93;48.16;92726.31;4989477;28;20043;-89
2022/12/22 12:59:56;;;;;;;52.60;18.10;;;;;;;14.83;47.89;92730.56;4985006;28;20050;-88
2022/12/22 13:02:31;;;;;;;56.45;15.80;;;;;;;14.75;47.31;92720.19;4972800;28;20081;-90
2022/12/22 13:05:10;;;;;;;57.30;15.93;;;;;;;14.87;48.08;92729.06;5014329;28;20095;-89
2022/12/22 13:08:06;;;;;;;55.55;17.23;;;;;;;14.92;48.39;92722.84;5007325;28;20508;-91
2022/12/22 13:10:36;;;;;;;123.55;29.02;;;;;;;14.91;48.76;92713.19;5009182;28;20394;-88
2022/12/22 13:13:02;;;;;;;103.85;28.67;;;;;;;14.96;49.09;92715.13;5004108;28;20121;-87
2022/12/22 13:15:35;;;;;;;88.70;29.70;;;;;;;14.96;49.25;92712.41;4976876;28;20034;-87
2022/12/22 13:18:29;;;;;;;78.60;27.55;;;;;;;15.03;49.46;92702.97;4992867;28;20026;-88
2022/12/22 13:21:07;;;;;;;83.50;28.05;;;;;;;15.13;49.38;92706.13;5000350;28;20046;-84
2022/12/22 13:24:09;;;;;;;88.72;25.88;;;;;;;15.15;49.22;92709.81;5022413;28;20061;-88
2022/12/22 13:26:36;;;;;;;88.03;28.30;;;;;;;15.21;49.55;92712.47;5018172;28;20054;-90
2022/12/22 13:29:29;;;;;;;78.10;27.50;;;;;;;15.07;49.71;92715.06;5006436;28;20038;-88
2022/12/22 13:31:58;;;;;;;81.65;27.65;;;;;;;15.08;49.41;92719.25;4992325;28;20045;-93
2022/12/22 13:34:38;;;;;;;99.13;27.92;;;;;;;15.13;49.60;92738.78;4989630;28;20183;-91
2022/12/22 13:37:23;;;;;;;100.93;29.35;;;;;;;15.18;49.99;92749.63;5007525;28;20416;-90
2022/12/22 13:40:12;;;;;;;107.45;28.58;;;;;;;15.15;49.66;92739.75;4988888;28;20186;-87
2022/12/22 13:42:50;;;;;;;94.53;29.60;;;;;;;15.18;49.79;92757.03;5018903;28;20096;-86
2022/12/22 13:45:24;;;;;;;112.05;29.48;;;;;;;15.17;49.76;92753.59;4974464;28;20033;-89
2022/12/22 13:47:50;;;;;;;91.07;27.13;;;;;;;15.27;49.63;92759.47;5008030;28;20037;-86
2022/12/22 13:50:17;;;;;;;84.50;28.70;;;;;;;15.19;49.99;92762.00;5006323;28;20042;-87
2022/12/22 13:52:42;;;;;;;112.25;30.25;;;;;;;15.24;49.78;92760.47;4987096;28;20045;-84
2022/12/22 13:55:24;;;;;;;244.68;44.25;;;;;;;15.23;50.15;92751.56;4976534;28;20041;-85
2022/12/22 13:57:51;;;;;;;295.80;48.70;;;;;;;15.21;49.87;92756.78;4986197;28;20158;-89
2022/12/22 14:00:21;;;;;;;180.88;41.50;;;;;;;15.29;49.36;92759.72;4987523;28;20065;-89
2022/12/22 14:02:47;;;;;;;121.97;30.48;;;;;;;15.16;48.78;92757.56;5002890;28;20046;-90
2022/12/22 14:05:12;;;;;;;154.77;30.67;;;;;;;15.14;49.12;92768.22;4957759;28;20064;-90
2022/12/22 14:07:38;;;;;;;108.95;29.50;;;;;;;15.11;49.47;92757.59;4989620;28;20056;-90
2022/12/22 14:10:04;;;;;;;153.18;32.20;;;;;;;15.02;49.53;92761.34;5007245;28;20115;-88
2022/12/22 14:12:39;;;;;;;132.80;33.45;;;;;;;15.08;49.42;92768.25;4970344;28;20164;-90
2022/12/22 14:15:08;;;;;;;112.15;31.40;;;;;;;15.06;49.96;92762.56;4968927;28;20088;-89
2022/12/22 14:17:35;;;;;;;95.63;25.38;;;;;;;15.06;49.60;92764.56;4987086;28;20078;-88
2022/12/22 14:20:14;;;;;;;75.35;18.77;;;;;;;14.97;48.60;92767.56;4962999;28;20520;-90
2022/12/22 14:22:44;;;;;;;46.35;14.50;;;;;;;14.88;48.74;92779.50;4988137;28;20480;-89
2022/12/22 14:25:16;;;;;;;65.95;17.02;;;;;;;14.77;48.52;92776.81;5005603;28;20045;-86
2022/12/22 14:27:44;;;;;;;38.05;14.27;;;;;;;14.78;48.53;92769.41;4944650;28;20046;-85
2022/12/22 14:30:19;;;;;;;121.68;20.58;;;;;;;14.72;48.24;92748.41;4994790;28;20045;-88
2022/12/22 14:32:47;;;;;;;169.90;24.17;;;;;;;14.89;48.64;92755.75;4987808;28;20034;-88
2022/12/22 14:35:20;;;;;;;122.13;20.83;;;;;;;14.75;49.36;92766.44;4953554;28;20053;-88
2022/12/22 14:37:49;;;;;;;97.22;19.95;;;;;;;14.77;49.24;92765.22;4991797;28;20056;-89
2022/12/22 14:40:37;;;;;;;163.45;23.40;;;;;;;14.87;49.83;92769.13;4983098;28;20034;-87
2022/12/22 14:43:05;;;;;;;152.10;23.70;;;;;;;14.99;49.12;92759.66;4983016;28;20138;-87
2022/12/22 14:45:31;;;;;;;167.82;26.80;;;;;;;14.99;49.81;92760.38;4986356;28;20050;-88
2022/12/22 14:47:57;;;;;;;119.18;26.88;;;;;;;14.93;49.76;92761.69;4972018;28;20073;-86
2022/12/22 14:50:26;;;;;;;219.88;65.18;;;;;;;14.97;50.39;92764.84;4968634;28;20106;-87
2022/12/22 14:52:55;;;;;;;112.65;29.88;;;;;;;14.96;50.76;92750.50;4954895;28;20058;-88
2022/12/22 14:55:29;;;;;;;103.90;24.08;;;;;;;14.99;50.01;92760.38;4971908;28;20038;-86
2022/12/22 14:58:00;;;;;;;79.22;20.33;;;;;;;15.08;50.39;92756.63;4941142;28;20078;-90
2022/12/22 15:00:36;;;;;;;163.75;23.67;;;;;;;15.01;49.90;92766.06;4985279;28;20356;-93
2022/12/22 15:03:03;;;;;;;172.82;29.90;;;;;;;15.09;50.57;92755.38;4953894;28;20050;-91
2022/12/22 15:05:37;;;;;;;163.00;28.88;;;;;;;15.05;49.96;92760.34;4953105;28;20100;-91
2022/12/22 15:08:04;;;;;;;101.65;25.65;;;;;;;15.10;49.95;92767.75;4975274;28;20038;-89
2022/12/22 15:10:36;;;;;;;100.63;24.35;;;;;;;15.06;50.01;92762.56;4967211;28;20070;-89
2022/12/22 15:13:04;;;;;;;89.22;22.60;;;;;;;15.09;49.64;92753.41;4957001;28;20046;-88
2022/12/22 15:15:30;;;;;;;66.85;20.85;;;;;;;15.06;50.27;92748.97;4972115;28;20042;-89